Time;durP1;ratioP1;P1;durP2;ratioP2;P2;SDS_P1;SDS_P2;PMS_P1;PMS_P2;Temp;Humidity;BMP_temperature;BMP_pressure;BME280_temperature;BME280_humidity;BME280_pressure;Samples;Min_cycle;Max_cycle;Signal;HPM_P1;HPM_P2
2021/09/18 00:00:53;;;;;;;9.30;8.32;;;;;;;11.89;100.00;101495.91;10509227;28;20489;-81
2021/09/18 00:05:55;;;;;;;11.95;9.25;;;;;;;11.61;100.00;101499.63;10498394;28;20075;-81
2021/09/18 00:10:57;;;;;;;10.25;8.50;;;;;;;11.57;100.00;101491.72;10493010;28;20055;-82
2021/09/18 00:15:59;;;;;;;11.57;9.15;;;;;;;11.59;100.00;101501.31;10536899;28;20599;-81
2021/09/18 00:21:02;;;;;;;10.25;8.90;;;;;;;11.54;100.00;101497.75;10520361;28;20409;-81
2021/09/18 00:26:04;;;;;;;9.43;8.13;;;;;;;11.52;100.00;101498.56;10509714;28;20052;-81
2021/09/18 00:31:06;;;;;;;8.52;7.43;;;;;;;11.43;100.00;101498.34;10494024;28;20133;-82
2021/09/18 00:36:08;;;;;;;10.40;7.50;;;;;;;11.41;100.00;101503.50;10490136;28;20048;-81
2021/09/18 00:41:09;;;;;;;9.23;7.57;;;;;;;11.32;100.00;101496.41;10505062;28;20422;-81
2021/09/18 00:46:11;;;;;;;7.45;6.50;;;;;;;11.29;100.00;101503.25;10518927;28;20059;-82
2021/09/18 00:51:13;;;;;;;9.57;7.88;;;;;;;11.34;100.00;101499.00;10511793;28;20063;-82
2021/09/18 00:56:17;;;;;;;9.93;7.65;;;;;;;11.13;100.00;101508.06;10493502;28;20055;-82
2021/09/18 01:01:19;;;;;;;9.65;8.25;;;;;;;11.14;100.00;101498.56;10522111;28;20098;-82
2021/09/18 01:06:21;;;;;;;10.45;9.07;;;;;;;11.03;100.00;101498.31;10497869;28;20071;-81
2021/09/18 01:11:24;;;;;;;9.23;8.25;;;;;;;11.03;100.00;101508.69;10527126;28;20569;-81
2021/09/18 01:16:26;;;;;;;8.40;6.93;;;;;;;10.96;100.00;101503.34;10511825;28;20569;-82
2021/09/18 01:21:27;;;;;;;8.50;7.63;;;;;;;10.95;100.00;101498.97;10522465;28;20131;-82
2021/09/18 01:26:34;;;;;;;10.43;8.70;;;;;;;10.88;100.00;101495.34;10517793;28;20496;-82
2021/09/18 01:31:40;;;;;;;10.38;7.97;;;;;;;10.88;100.00;101497.94;10520848;28;20393;-82
2021/09/18 01:36:43;;;;;;;11.88;9.30;;;;;;;10.77;100.00;101499.41;10507546;28;20061;-82
2021/09/18 01:41:46;;;;;;;11.00;9.27;;;;;;;10.72;100.00;101496.72;10493334;28;20052;-82
2021/09/18 01:46:48;;;;;;;12.10;8.52;;;;;;;10.65;100.00;101505.16;10511576;28;20407;-82
2021/09/18 01:52:18;;;;;;;12.40;10.70;;;;;;;10.63;100.00;101498.19;10533874;28;20530;-82
2021/09/18 01:57:14;;;;;;;13.77;12.07;;;;;;;10.52;100.00;101500.50;10525583;28;20136;-82
2021/09/18 02:02:15;;;;;;;14.30;11.32;;;;;;;10.48;100.00;101494.38;10492825;28;20159;-81
2021/09/18 02:07:17;;;;;;;15.18;11.02;;;;;;;10.53;100.00;101494.50;10482525;28;20110;-81
2021/09/18 02:12:19;;;;;;;20.52;12.13;;;;;;;10.46;100.00;101493.47;10518007;28;20052;-81
2021/09/18 02:17:20;;;;;;;14.43;9.70;;;;;;;10.30;100.00;101492.19;10482098;28;20056;-81
2021/09/18 02:22:22;;;;;;;10.63;9.25;;;;;;;10.13;100.00;101495.13;10514241;28;20135;-82
2021/09/18 02:27:24;;;;;;;14.30;8.52;;;;;;;10.16;100.00;101478.00;10495726;28;20090;-82
2021/09/18 02:32:25;;;;;;;12.63;8.98;;;;;;;10.17;100.00;101494.38;10522099;28;20055;-82
2021/09/18 02:37:27;;;;;;;9.15;8.20;;;;;;;10.18;100.00;101483.22;10522353;28;20049;-82
2021/09/18 02:42:29;;;;;;;9.00;8.10;;;;;;;10.14;100.00;101484.81;10509132;28;20056;-83
2021/09/18 02:47:30;;;;;;;10.02;8.50;;;;;;;10.13;100.00;101479.63;10522042;28;20433;-82
2021/09/18 02:52:32;;;;;;;9.45;8.45;;;;;;;10.03;100.00;101481.94;10504633;28;20057;-82
2021/09/18 02:57:34;;;;;;;10.85;8.80;;;;;;;9.92;100.00;101472.16;10483407;28;20491;-82
2021/09/18 03:02:37;;;;;;;10.57;8.07;;;;;;;9.92;100.00;101470.44;10504608;28;20109;-83
2021/09/18 03:07:40;;;;;;;8.73;7.80;;;;;;;9.84;100.00;101459.03;10488191;28;20282;-82
2021/09/18 03:12:42;;;;;;;9.50;8.48;;;;;;;9.89;100.00;101454.00;10524160;28;20062;-82
2021/09/18 03:17:43;;;;;;;9.15;8.05;;;;;;;9.97;100.00;101462.81;10537767;28;20139;-83
2021/09/18 03:22:45;;;;;;;8.93;8.05;;;;;;;9.85;100.00;101459.91;10532073;28;20567;-83
2021/09/18 03:27:46;;;;;;;10.15;8.18;;;;;;;9.76;100.00;101464.00;10507621;28;20442;-84
2021/09/18 03:32:48;;;;;;;11.40;9.57;;;;;;;9.75;100.00;101469.97;10517708;28;20095;-83
2021/09/18 03:37:49;;;;;;;12.02;9.73;;;;;;;9.74;100.00;101459.59;10539202;28;20052;-84
2021/09/18 03:42:51;;;;;;;11.90;9.15;;;;;;;9.68;100.00;101465.47;10511881;28;20052;-82
2021/09/18 03:47:53;;;;;;;9.48;8.32;;;;;;;9.67;100.00;101473.19;10491963;28;20088;-83
2021/09/18 03:52:54;;;;;;;10.35;8.90;;;;;;;9.75;100.00;101469.09;10485814;28;20057;-83
2021/09/18 03:57:56;;;;;;;10.05;8.27;;;;;;;9.70;100.00;101465.50;10478576;28;20135;-83
2021/09/18 04:02:57;;;;;;;7.63;6.80;;;;;;;9.67;100.00;101463.72;10513780;28;20143;-82
2021/09/18 04:08:05;;;;;;;9.38;8.07;;;;;;;9.64;100.00;101462.75;10522547;28;20056;-82
2021/09/18 04:13:06;;;;;;;;;;;;;;;9.64;100.00;101470.50;10509353;28;20487;-83
2021/09/18 04:18:08;;;;;;;10.45;8.15;;;;;;;9.49;100.00;101469.22;10488580;28;20104;-83
2021/09/18 04:23:09;;;;;;;10.98;8.82;;;;;;;9.61;100.00;101484.22;10512200;28;20106;-83
2021/09/18 04:28:11;;;;;;;10.40;7.82;;;;;;;9.64;100.00;101473.06;10517281;28;20412;-83
2021/09/18 04:33:12;;;;;;;13.27;7.68;;;;;;;9.61;100.00;101485.91;10520914;28;20147;-83
2021/09/18 04:38:14;;;;;;;24.05;8.68;;;;;;;9.53;100.00;101483.13;10501218;28;20455;-82
2021/09/18 04:43:16;;;;;;;9.82;8.27;;;;;;;9.61;100.00;101489.38;10514420;28;20110;-83
2021/09/18 04:48:18;;;;;;;25.30;9.15;;;;;;;9.54;100.00;101492.63;10524448;28;20169;-83
2021/09/18 04:53:19;;;;;;;19.38;9.10;;;;;;;9.62;100.00;101506.63;10525416;28;20530;-83
2021/09/18 04:58:21;;;;;;;10.50;8.30;;;;;;;9.52;100.00;101507.19;10514585;28;20479;-83
2021/09/18 05:03:22;;;;;;;9.77;7.65;;;;;;;9.44;100.00;101508.66;10507335;28;20055;-83
2021/09/18 05:08:24;;;;;;;9.43;8.35;;;;;;;9.42;100.00;101515.50;10528033;28;20491;-82
2021/09/18 05:13:26;;;;;;;9.90;7.07;;;;;;;9.46;100.00;101517.31;10516760;28;20052;-83
2021/09/18 05:18:30;;;;;;;9.30;8.02;;;;;;;9.43;100.00;101514.66;10499542;28;20457;-83
2021/09/18 05:23:32;;;;;;;9.13;6.93;;;;;;;9.36;100.00;101523.03;10525519;28;20534;-82
2021/09/18 05:28:33;;;;;;;7.07;6.38;;;;;;;9.41;100.00;101524.06;10508570;28;20057;-83
2021/09/18 05:33:35;;;;;;;10.07;8.27;;;;;;;9.43;100.00;101527.59;10515760;28;20086;-83
2021/09/18 05:38:37;;;;;;;8.88;7.18;;;;;;;9.48;100.00;101528.59;10506775;28;20055;-83
2021/09/18 05:43:38;;;;;;;9.80;7.78;;;;;;;9.55;100.00;101523.66;10508276;28;20451;-83
2021/09/18 05:48:40;;;;;;;8.65;7.35;;;;;;;9.55;100.00;101526.22;10523965;28;20083;-82
2021/09/18 05:53:41;;;;;;;8.65;7.28;;;;;;;9.56;100.00;101527.09;10540405;28;20056;-83
2021/09/18 05:58:43;;;;;;;8.32;7.38;;;;;;;9.51;100.00;101529.56;10496835;28;20568;-83
2021/09/18 06:03:44;;;;;;;12.18;7.75;;;;;;;9.56;100.00;101534.84;10525803;28;20056;-84
2021/09/18 06:08:46;;;;;;;11.07;7.47;;;;;;;9.70;100.00;101533.56;10489859;28;20048;-83
2021/09/18 06:13:48;;;;;;;9.68;8.27;;;;;;;9.90;100.00;101533.25;10520316;28;20052;-83
2021/09/18 06:18:51;;;;;;;8.30;7.32;;;;;;;9.96;100.00;101530.84;10518268;28;20048;-83
2021/09/18 06:23:53;;;;;;;10.13;8.50;;;;;;;9.98;100.00;101535.25;10514812;28;20055;-83
2021/09/18 06:28:54;;;;;;;10.40;8.35;;;;;;;10.07;100.00;101538.06;10503569;28;20051;-83
2021/09/18 06:33:59;;;;;;;8.13;7.18;;;;;;;10.23;100.00;101541.09;10481683;28;20500;-84
2021/09/18 06:39:01;;;;;;;8.52;7.70;;;;;;;10.47;100.00;101551.25;10506441;28;20139;-84
2021/09/18 06:44:03;;;;;;;14.73;10.50;;;;;;;10.69;100.00;101552.69;10510404;28;20079;-83
2021/09/18 06:49:05;;;;;;;16.10;11.77;;;;;;;10.77;100.00;101561.50;10508428;28;20123;-84
2021/09/18 06:54:06;;;;;;;16.33;12.20;;;;;;;10.99;100.00;101560.34;10495671;28;20107;-84
2021/09/18 06:59:08;;;;;;;19.00;14.13;;;;;;;11.20;100.00;101566.06;10510104;28;20053;-84
2021/09/18 07:04:09;;;;;;;12.82;11.32;;;;;;;11.37;100.00;101559.53;10518706;28;20105;-84
2021/09/18 07:09:11;;;;;;;15.98;12.20;;;;;;;11.43;100.00;101564.00;10504568;28;20064;-84
2021/09/18 07:14:12;;;;;;;17.58;13.63;;;;;;;12.15;100.00;101569.03;10501725;28;20052;-84
2021/09/18 07:19:14;;;;;;;18.80;14.70;;;;;;;12.06;100.00;101575.75;10486851;28;20056;-84
2021/09/18 07:24:16;;;;;;;18.88;13.38;;;;;;;12.54;100.00;101578.44;10536870;28;20056;-83
2021/09/18 07:29:20;;;;;;;21.48;16.45;;;;;;;12.23;100.00;101571.78;10529790;28;20064;-84
2021/09/18 07:34:22;;;;;;;34.53;15.50;;;;;;;12.26;100.00;101570.97;10499456;28;20478;-84
2021/09/18 07:39:23;;;;;;;25.50;14.80;;;;;;;12.49;100.00;101569.69;10504024;28;20064;-84
2021/09/18 07:44:25;;;;;;;18.38;13.73;;;;;;;12.57;100.00;101570.69;10509664;28;20058;-84
2021/09/18 07:49:26;;;;;;;21.23;16.40;;;;;;;12.84;100.00;101570.31;10508173;28;20061;-84
2021/09/18 07:54:29;;;;;;;26.45;17.73;;;;;;;13.06;100.00;101581.94;10494524;28;20058;-84
2021/09/18 07:59:52;;;;;;;22.45;16.30;;;;;;;13.35;100.00;101585.03;10496885;28;20407;-83
2021/09/18 08:05:12;;;;;;;28.17;17.67;;;;;;;13.41;100.00;101592.06;10540573;28;20068;-83
2021/09/18 08:10:14;;;;;;;47.85;20.35;;;;;;;13.34;100.00;101579.84;10533656;28;20083;-83
2021/09/18 08:15:17;;;;;;;64.18;21.92;;;;;;;13.38;100.00;101589.41;10507342;28;21618;-84
2021/09/18 08:20:19;;;;;;;28.63;19.77;;;;;;;13.52;100.00;101582.69;10526495;28;20050;-83
2021/09/18 08:25:21;;;;;;;31.63;22.33;;;;;;;13.75;100.00;101585.63;10520333;28;20075;-84
2021/09/18 08:30:24;;;;;;;26.55;19.45;;;;;;;14.09;100.00;101580.88;10533926;28;20044;-83
2021/09/18 08:35:25;;;;;;;31.63;21.83;;;;;;;14.16;100.00;101586.16;10521551;28;20139;-83
2021/09/18 08:40:27;;;;;;;29.90;21.02;;;;;;;14.23;100.00;101592.28;10517217;28;20057;-83
2021/09/18 08:45:30;;;;;;;26.08;21.05;;;;;;;14.58;100.00;101595.34;10514412;28;20052;-83
2021/09/18 08:50:33;;;;;;;31.42;23.58;;;;;;;14.63;100.00;101595.38;10533597;28;20071;-82
2021/09/18 08:55:35;;;;;;;29.13;21.15;;;;;;;14.67;100.00;101597.16;10534101;28;20139;-82
2021/09/18 09:00:37;;;;;;;22.27;17.92;;;;;;;14.88;100.00;101592.16;10535379;28;20045;-83
2021/09/18 09:05:42;;;;;;;34.42;24.27;;;;;;;14.76;100.00;101602.47;10540338;28;20103;-82
2021/09/18 09:10:45;;;;;;;25.63;20.60;;;;;;;15.00;100.00;101601.81;10546644;28;20056;-82
2021/09/18 09:15:50;;;;;;;29.30;21.52;;;;;;;15.00;100.00;101602.69;10530679;28;20135;-82
2021/09/18 09:21:16;;;;;;;25.23;20.13;;;;;;;15.44;100.00;101603.91;10504499;28;20064;-82
2021/09/18 09:26:18;;;;;;;24.73;19.67;;;;;;;15.62;100.00;101602.34;10519755;28;20056;-82
2021/09/18 09:31:29;;;;;;;25.55;18.33;;;;;;;15.99;100.00;101596.44;10511798;28;20051;-81
2021/09/18 09:36:46;;;;;;;23.83;18.50;;;;;;;16.24;100.00;101594.81;10514397;28;20102;-82
2021/09/18 09:41:50;;;;;;;25.08;18.85;;;;;;;16.48;100.00;101599.22;10507471;28;20071;-81
2021/09/18 09:47:09;;;;;;;21.27;18.25;;;;;;;16.55;100.00;101594.00;10516679;28;20064;-82
2021/09/18 09:52:25;;;;;;;18.65;16.08;;;;;;;17.06;95.89;101599.34;10525606;28;20127;-82
2021/09/18 09:57:27;;;;;;;21.17;16.70;;;;;;;17.15;94.91;101600.22;10526883;28;20065;-81
2021/09/18 10:02:28;;;;;;;17.10;15.30;;;;;;;18.01;91.07;101600.09;10515390;28;20059;-83
2021/09/18 10:07:30;;;;;;;15.52;13.93;;;;;;;18.17;89.11;101603.53;10513101;28;20131;-82
2021/09/18 10:12:38;;;;;;;12.70;11.02;;;;;;;18.63;85.27;101598.91;10515222;28;20086;-82
2021/09/18 10:17:47;;;;;;;14.80;12.40;;;;;;;19.00;86.30;101598.66;10534428;28;20049;-82
2021/09/18 10:28:12;;;;;;;12.85;11.48;;;;;;;19.86;77.81;101590.91;10527227;28;20548;-83
2021/09/18 10:33:32;;;;;;;12.18;10.88;;;;;;;19.24;81.50;101589.75;10505576;28;20056;-82
2021/09/18 10:38:46;;;;;;;12.32;10.20;;;;;;;20.13;76.79;101582.66;10523838;28;20068;-84
2021/09/18 10:43:50;;;;;;;10.27;8.65;;;;;;;21.36;70.83;101572.94;10511021;28;20063;-82
2021/09/18 10:48:55;;;;;;;12.50;10.05;;;;;;;20.28;73.71;101567.59;10528572;28;20127;-83
2021/09/18 10:54:05;;;;;;;9.90;8.90;;;;;;;22.11;66.71;101558.31;10522055;28;20059;-82
2021/09/18 10:59:07;;;;;;;9.93;8.82;;;;;;;21.68;67.81;101552.16;10503917;28;20238;-82
2021/09/18 11:04:37;;;;;;;10.63;8.35;;;;;;;21.47;70.85;101556.97;10501383;28;20056;-82
2021/09/18 11:09:48;;;;;;;10.55;9.45;;;;;;;21.16;73.26;101553.09;10512855;28;20420;-82
2021/09/18 11:15:01;;;;;;;11.93;10.20;;;;;;;21.48;72.25;101553.41;10494590;28;20059;-82
2021/09/18 11:20:16;;;;;;;11.35;10.15;;;;;;;21.88;69.53;101551.72;10517465;28;20472;-82
2021/09/18 11:25:48;;;;;;;13.48;11.68;;;;;;;21.42;71.18;101560.53;10524009;28;20055;-83
2021/09/18 11:30:53;;;;;;;13.70;12.27;;;;;;;22.13;68.67;101554.75;10512535;28;20135;-83
2021/09/18 11:35:58;;;;;;;;;;;;;;;21.70;69.30;101546.84;10495148;28;20065;-83
2021/09/18 11:41:09;;;;;;;14.85;13.25;;;;;;;22.69;66.10;101546.44;10539589;28;19920;-85
2021/09/18 11:46:22;;;;;;;20.20;15.98;;;;;;;22.53;65.31;101540.69;10502360;28;20061;-83
2021/09/18 11:51:24;;;;;;;19.20;15.50;;;;;;;22.39;65.47;101543.63;10525392;28;20053;-83
2021/09/18 11:56:26;;;;;;;21.20;16.33;;;;;;;21.59;69.68;101528.59;10497159;28;20056;-82
2021/09/18 12:01:27;;;;;;;18.42;15.45;;;;;;;21.92;67.03;101524.41;10496453;28;20312;-83
2021/09/18 12:06:30;;;;;;;18.20;15.35;;;;;;;21.46;69.17;101529.75;10507543;28;20408;-81
2021/09/18 12:11:37;;;;;;;19.08;16.63;;;;;;;20.94;70.66;101524.56;10508508;28;20060;-83
2021/09/18 12:16:38;;;;;;;20.42;17.13;;;;;;;21.51;69.63;101527.91;10511228;28;20067;-81
2021/09/18 12:21:40;;;;;;;22.50;20.20;;;;;;;20.70;72.14;101524.03;10506122;28;20044;-83
2021/09/18 12:26:42;;;;;;;22.85;18.80;;;;;;;20.74;72.05;101530.13;10506929;28;20060;-82
2021/09/18 12:31:47;;;;;;;20.27;16.63;;;;;;;20.64;71.01;101532.03;10525854;28;20214;-81
2021/09/18 12:36:49;;;;;;;;;;;;;;;20.73;70.94;101534.53;10508170;28;20156;-82
2021/09/18 12:42:03;;;;;;;15.35;13.32;;;;;;;20.52;71.87;101533.09;10507047;28;19920;-83
2021/09/18 12:47:05;;;;;;;16.25;12.35;;;;;;;20.04;69.86;101543.38;10522907;28;20052;-82
2021/09/18 12:52:06;;;;;;;14.70;13.18;;;;;;;19.94;69.30;101536.50;10530729;28;20052;-81
2021/09/18 12:57:08;;;;;;;12.05;10.18;;;;;;;20.22;69.60;101537.00;10513896;28;20056;-81
2021/09/18 13:02:10;;;;;;;14.55;10.52;;;;;;;19.98;68.54;101532.09;10503553;28;20060;-82
2021/09/18 13:07:12;;;;;;;12.18;9.82;;;;;;;20.00;68.76;101525.03;10504017;28;20080;-82
2021/09/18 13:12:18;;;;;;;11.35;9.93;;;;;;;20.18;66.47;101529.19;10484709;28;20056;-82
2021/09/18 13:17:29;;;;;;;11.13;9.48;;;;;;;20.26;66.58;101522.94;10498649;28;20055;-81
2021/09/18 13:22:38;;;;;;;11.50;8.40;;;;;;;20.25;66.23;101513.31;10532218;28;20406;-81
2021/09/18 13:27:43;;;;;;;10.25;8.50;;;;;;;20.25;64.61;101515.97;10508784;28;20048;-83
2021/09/18 13:32:44;;;;;;;9.40;7.60;;;;;;;19.83;64.96;101520.00;10484647;28;20056;-82
2021/09/18 13:37:45;;;;;;;8.43;6.97;;;;;;;20.11;64.43;101513.50;10531048;28;20056;-82
2021/09/18 13:42:47;;;;;;;7.35;6.45;;;;;;;20.03;63.67;101512.75;10521190;28;20706;-83
2021/09/18 13:47:49;;;;;;;6.63;5.93;;;;;;;20.03;62.48;101507.50;10498623;28;20058;-82
2021/09/18 13:52:50;;;;;;;7.97;4.88;;;;;;;20.06;63.77;101493.44;10524000;28;20057;-83
2021/09/18 13:57:52;;;;;;;6.35;5.38;;;;;;;20.04;63.32;101488.22;10521884;28;20129;-82
2021/09/18 14:02:54;;;;;;;8.40;6.03;;;;;;;20.07;64.24;101482.91;10490001;28;20052;-82
2021/09/18 14:07:56;;;;;;;7.50;5.53;;;;;;;20.13;62.31;101467.03;10519935;28;20052;-82
2021/09/18 14:12:58;;;;;;;7.93;6.20;;;;;;;20.27;64.09;101466.00;10515275;28;20521;-82
2021/09/18 14:18:01;;;;;;;7.97;6.80;;;;;;;20.18;63.21;101456.47;10511171;28;20052;-82
2021/09/18 14:23:05;;;;;;;9.85;8.50;;;;;;;20.28;62.10;101455.44;10529086;28;20101;-82
2021/09/18 14:28:07;;;;;;;9.73;8.60;;;;;;;20.38;62.24;101438.66;10527445;28;20376;-83
2021/09/18 14:33:09;;;;;;;10.80;8.65;;;;;;;20.26;63.19;101440.59;10506332;28;20053;-83
2021/09/18 14:38:12;;;;;;;9.00;8.10;;;;;;;20.28;64.22;101434.41;10524315;28;20067;-84
2021/09/18 14:43:13;;;;;;;10.25;8.20;;;;;;;20.57;63.20;101439.22;10509849;28;20058;-82
2021/09/18 14:48:15;;;;;;;9.80;7.38;;;;;;;20.41;62.42;101434.22;10511343;28;20405;-82
2021/09/18 14:53:16;;;;;;;7.82;6.65;;;;;;;20.40;61.94;101425.47;10514874;28;20051;-83
2021/09/18 14:58:18;;;;;;;9.50;7.78;;;;;;;20.44;64.08;101429.78;10516465;28;20059;-82
2021/09/18 15:03:20;;;;;;;7.25;6.32;;;;;;;20.18;62.82;101411.81;10513894;28;20044;-82
2021/09/18 15:08:22;;;;;;;6.53;5.82;;;;;;;20.20;61.52;101419.69;10522338;28;20054;-82
2021/09/18 15:13:23;;;;;;;8.00;6.82;;;;;;;20.16;62.09;101426.72;10496655;28;20048;-82
2021/09/18 15:18:25;;;;;;;11.80;9.05;;;;;;;20.18;64.82;101424.06;10495771;28;20060;-83
2021/09/18 15:23:26;;;;;;;9.70;8.68;;;;;;;20.23;62.90;101431.00;10505585;28;20063;-83
2021/09/18 15:28:28;;;;;;;8.73;7.68;;;;;;;20.24;63.79;101435.34;10516126;28;20056;-82
2021/09/18 15:33:29;;;;;;;8.70;7.80;;;;;;;19.95;63.55;101425.28;10481263;28;20504;-81
2021/09/18 15:38:31;;;;;;;10.90;8.50;;;;;;;19.94;65.79;101428.81;10539493;28;20414;-82
2021/09/18 15:43:32;;;;;;;10.15;9.05;;;;;;;20.02;66.41;101428.69;10525909;28;20055;-81
2021/09/18 15:48:34;;;;;;;12.05;8.15;;;;;;;20.12;67.57;101423.28;10497084;28;20087;-83
2021/09/18 15:53:36;;;;;;;9.13;8.32;;;;;;;20.14;68.15;101428.53;10497310;28;20549;-83
2021/09/18 15:58:38;;;;;;;9.27;7.30;;;;;;;19.82;65.51;101429.00;10511331;28;20052;-82
2021/09/18 16:03:40;;;;;;;7.63;6.93;;;;;;;19.66;66.86;101430.94;10502247;28;20068;-82
2021/09/18 16:08:42;;;;;;;10.05;7.40;;;;;;;19.53;67.79;101437.22;10525324;28;20088;-81
2021/09/18 16:13:43;;;;;;;8.98;7.00;;;;;;;19.37;68.39;101440.91;10520819;28;20491;-81
2021/09/18 16:18:45;;;;;;;7.70;6.95;;;;;;;19.26;68.94;101438.41;10488741;28;20057;-81
2021/09/18 16:23:46;;;;;;;7.43;6.57;;;;;;;19.25;69.30;101434.06;10509914;28;20056;-82
2021/09/18 16:28:48;;;;;;;8.00;6.43;;;;;;;19.12;69.75;101430.72;10518797;28;20105;-82
2021/09/18 16:33:51;;;;;;;10.35;6.60;;;;;;;19.01;70.75;101430.81;10499490;28;20134;-81
2021/09/18 16:38:52;;;;;;;6.65;5.43;;;;;;;18.98;70.80;101435.22;10521070;28;20098;-81
2021/09/18 16:43:54;;;;;;;8.68;7.40;;;;;;;18.96;72.96;101437.00;10504589;28;20052;-81
2021/09/18 16:48:56;;;;;;;9.65;7.72;;;;;;;18.70;73.04;101437.25;10517610;28;20052;-82
2021/09/18 16:53:57;;;;;;;9.40;6.40;;;;;;;18.57;73.93;101438.22;10486313;28;20052;-81
2021/09/18 16:59:00;;;;;;;8.43;6.07;;;;;;;18.41;73.66;101442.69;10503519;28;20106;-82
2021/09/18 17:04:01;;;;;;;5.60;4.63;;;;;;;18.27;74.23;101443.69;10514484;28;20059;-81
2021/09/18 17:09:04;;;;;;;7.80;5.82;;;;;;;18.13;74.64;101444.66;10514216;28;20052;-81
2021/09/18 17:14:05;;;;;;;5.32;4.53;;;;;;;17.90;76.49;101450.91;10528101;28;20071;-81
2021/09/18 17:19:07;;;;;;;7.20;6.50;;;;;;;17.85;76.82;101457.03;10513497;28;21408;-81
2021/09/18 17:24:09;;;;;;;7.13;6.47;;;;;;;17.76;77.23;101447.50;10507898;28;20399;-82
2021/09/18 17:29:10;;;;;;;7.68;5.60;;;;;;;17.53;78.51;101450.19;10505080;28;20051;-82
2021/09/18 17:34:12;;;;;;;4.93;4.10;;;;;;;17.29;80.68;101450.25;10529300;28;20071;-82
2021/09/18 17:39:13;;;;;;;5.05;4.30;;;;;;;16.94;83.37;101449.47;10530014;28;20518;-82
2021/09/18 17:44:15;;;;;;;4.80;3.95;;;;;;;16.79;83.98;101449.50;10530395;28;20071;-81
2021/09/18 17:49:17;;;;;;;4.95;4.25;;;;;;;16.61;85.23;101445.09;10494828;28;20388;-81
2021/09/18 17:54:19;;;;;;;4.60;3.90;;;;;;;16.48;86.16;101445.13;10533059;28;20518;-82
2021/09/18 17:59:20;;;;;;;5.75;3.92;;;;;;;16.17;88.29;101450.31;10526098;28;20044;-82
2021/09/18 18:04:22;;;;;;;4.50;4.10;;;;;;;16.05;89.32;101445.97;10525599;28;20059;-82
2021/09/18 18:09:24;;;;;;;6.32;4.13;;;;;;;15.99;88.89;101451.13;10515871;28;20052;-82
2021/09/18 18:14:26;;;;;;;6.13;4.45;;;;;;;15.79;90.01;101453.72;10519643;28;20148;-82
2021/09/18 18:19:27;;;;;;;5.82;3.88;;;;;;;15.63;90.72;101454.50;10494713;28;20131;-83
2021/09/18 18:24:29;;;;;;;5.65;4.13;;;;;;;15.48;91.31;101457.88;10503845;28;20056;-83
2021/09/18 18:29:31;;;;;;;6.38;4.80;;;;;;;15.34;92.51;101462.19;10531369;28;20052;-82
2021/09/18 18:34:32;;;;;;;6.97;4.97;;;;;;;15.28;92.92;101467.34;10483136;28;20058;-83
2021/09/18 18:39:34;;;;;;;6.95;5.28;;;;;;;15.11;93.86;101468.13;10522406;28;20060;-82
2021/09/18 18:44:38;;;;;;;5.00;4.60;;;;;;;15.00;94.57;101467.19;10516931;28;20070;-82
2021/09/18 18:49:42;;;;;;;5.53;4.55;;;;;;;14.88;95.53;101472.31;10491353;28;20056;-82
2021/09/18 18:54:43;;;;;;;11.68;5.32;;;;;;;14.90;95.02;101475.78;10490484;28;20056;-82
2021/09/18 18:59:45;;;;;;;7.93;5.95;;;;;;;14.72;96.04;101475.66;10517381;28;20060;-82
2021/09/18 19:04:47;;;;;;;5.85;5.22;;;;;;;14.58;97.17;101480.78;10537163;28;20059;-83
2021/09/18 19:09:50;;;;;;;6.50;5.38;;;;;;;14.44;97.73;101482.34;10505000;28;20105;-82
2021/09/18 19:14:51;;;;;;;5.50;4.93;;;;;;;14.38;97.83;101482.28;10491159;28;20113;-82
2021/09/18 19:19:54;;;;;;;6.88;6.13;;;;;;;14.33;97.93;101488.31;10529688;28;20052;-82
2021/09/18 19:24:56;;;;;;;7.93;5.50;;;;;;;14.17;99.01;101490.72;10493792;28;20070;-82
2021/09/18 19:29:58;;;;;;;4.97;4.53;;;;;;;14.12;99.23;101495.88;10505385;28;20056;-83
2021/09/18 19:35:00;;;;;;;6.10;5.38;;;;;;;14.00;100.00;101496.63;10509668;28;20062;-82
2021/09/18 19:40:04;;;;;;;7.03;6.13;;;;;;;13.93;100.00;101496.53;10513498;28;20056;-83
2021/09/18 19:45:06;;;;;;;8.00;6.38;;;;;;;13.83;100.00;101498.16;10508686;28;20099;-82
2021/09/18 19:50:09;;;;;;;10.07;7.45;;;;;;;13.74;100.00;101492.88;10518170;28;20496;-82
2021/09/18 19:55:13;;;;;;;9.32;7.05;;;;;;;13.72;100.00;101494.56;10491304;28;20140;-83
2021/09/18 20:00:15;;;;;;;8.00;7.20;;;;;;;13.68;100.00;101491.06;10507130;28;20056;-82
2021/09/18 20:05:17;;;;;;;7.75;6.40;;;;;;;13.56;100.00;101490.91;10501397;28;20060;-81
2021/09/18 20:10:19;;;;;;;9.32;7.03;;;;;;;13.48;100.00;101488.19;10523435;28;20143;-82
2021/09/18 20:15:20;;;;;;;8.57;7.15;;;;;;;13.40;100.00;101487.22;10502604;28;20107;-82
2021/09/18 20:20:22;;;;;;;10.55;7.72;;;;;;;13.26;100.00;101487.00;10527942;28;20060;-82
2021/09/18 20:25:24;;;;;;;8.02;7.22;;;;;;;13.04;100.00;101482.31;10484794;28;20127;-82
2021/09/18 20:30:25;;;;;;;8.07;7.25;;;;;;;13.11;100.00;101479.00;10521115;28;20067;-82
2021/09/18 20:35:27;;;;;;;7.75;6.60;;;;;;;13.08;100.00;101476.34;10511583;28;20102;-82
2021/09/18 20:40:29;;;;;;;9.65;7.28;;;;;;;12.98;100.00;101475.31;10487148;28;20135;-82
2021/09/18 20:45:32;;;;;;;8.48;6.70;;;;;;;12.81;100.00;101474.19;10525089;28;20197;-82
2021/09/18 20:50:35;;;;;;;8.20;6.63;;;;;;;12.78;100.00;101478.47;10490557;28;20083;-82
2021/09/18 20:55:37;;;;;;;6.70;6.00;;;;;;;12.75;100.00;101476.69;10513456;28;20468;-82
2021/09/18 21:00:43;;;;;;;8.25;5.95;;;;;;;12.64;100.00;101476.50;10530220;28;20055;-83
2021/09/18 21:05:46;;;;;;;6.57;5.83;;;;;;;12.43;100.00;101477.03;10506980;28;20147;-82
2021/09/18 21:10:53;;;;;;;7.15;5.60;;;;;;;12.39;100.00;101490.78;10506640;28;20057;-82
2021/09/18 21:15:58;;;;;;;7.25;6.45;;;;;;;12.28;100.00;101492.31;10496779;28;20052;-82
2021/09/18 21:21:00;;;;;;;6.45;5.85;;;;;;;12.16;100.00;101502.47;10514168;28;20048;-82
2021/09/18 21:26:02;;;;;;;7.22;5.90;;;;;;;12.15;100.00;101498.13;10526928;28;20052;-82
2021/09/18 21:31:04;;;;;;;9.88;5.70;;;;;;;12.10;100.00;101494.59;10500848;28;20457;-82
2021/09/18 21:36:06;;;;;;;6.32;5.72;;;;;;;12.09;100.00;101495.44;10500276;28;20242;-81
2021/09/18 21:41:07;;;;;;;6.78;6.03;;;;;;;11.89;100.00;101488.13;10513259;28;20079;-82
2021/09/18 21:46:09;;;;;;;6.35;5.75;;;;;;;11.85;100.00;101480.25;10536634;28;20089;-81
2021/09/18 21:51:11;;;;;;;6.05;5.45;;;;;;;11.82;100.00;101475.03;10525232;28;20052;-82
2021/09/18 21:56:13;;;;;;;8.75;5.50;;;;;;;11.78;100.00;101471.44;10518394;28;20063;-82
2021/09/18 22:01:25;;;;;;;5.15;4.65;;;;;;;11.74;100.00;101461.88;10497639;28;20060;-80
2021/09/18 22:06:30;;;;;;;5.60;4.38;;;;;;;11.71;100.00;101466.13;10526978;28;20060;-82
2021/09/18 22:11:34;;;;;;;10.35;5.57;;;;;;;11.67;100.00;101462.56;10482885;28;20378;-81
2021/09/18 22:16:37;;;;;;;4.85;4.38;;;;;;;11.65;100.00;101456.50;10519336;28;20458;-81
2021/09/18 22:21:39;;;;;;;5.03;4.57;;;;;;;11.55;100.00;101472.69;10520518;28;20109;-81
2021/09/18 22:26:42;;;;;;;6.85;5.00;;;;;;;11.50;100.00;101464.81;10511008;28;20060;-82
2021/09/18 22:31:43;;;;;;;4.80;4.30;;;;;;;11.57;100.00;101461.53;10510456;28;20052;-82
2021/09/18 22:36:45;;;;;;;6.82;5.40;;;;;;;11.54;100.00;101464.06;10498369;28;20062;-82
2021/09/18 22:41:47;;;;;;;6.13;4.78;;;;;;;11.39;100.00;101453.34;10520434;28;20056;-82
2021/09/18 22:46:50;;;;;;;5.88;4.88;;;;;;;11.29;100.00;101456.63;10511029;28;20056;-82
2021/09/18 22:51:52;;;;;;;5.22;4.70;;;;;;;11.25;100.00;101458.25;10512979;28;20048;-82
2021/09/18 22:56:54;;;;;;;6.70;4.72;;;;;;;11.27;100.00;101453.09;10495246;28;20483;-81
2021/09/18 23:01:55;;;;;;;5.45;4.68;;;;;;;11.34;100.00;101444.59;10509979;28;20500;-81